Time;durP1;ratioP1;P1;durP2;ratioP2;P2;SDS_P1;SDS_P2;PMS_P1;PMS_P2;Temp;Humidity;BMP_temperature;BMP_pressure;BME280_temperature;BME280_humidity;BME280_pressure;Samples;Min_cycle;Max_cycle;Signal;HPM_P1;HPM_P2
2023/06/12 00:01:20;;;;;;;;;1.67;1.67;;;;;28.51;39.68;101354.56;5058509;28;45450;-74
2023/06/12 00:03:47;;;;;;;;;2.00;2.00;;;;;28.47;39.27;101353.31;5078700;28;45499;-75
2023/06/12 00:06:16;;;;;;;;;1.00;1.00;;;;;28.55;39.16;101354.16;5078135;28;46378;-74
2023/06/12 00:08:42;;;;;;;;;2.00;2.00;;;;;28.51;39.23;101362.59;5059953;28;45410;-74
2023/06/12 00:11:12;;;;;;;;;0.67;0.67;;;;;28.56;39.82;101361.94;5078766;28;45320;-75
2023/06/12 00:13:38;;;;;;;;;3.00;3.00;;;;;28.57;39.67;101363.59;5078630;28;45460;-75
2023/06/12 00:16:04;;;;;;;;;2.00;2.00;;;;;28.56;39.21;101366.47;5078139;28;45340;-75
2023/06/12 00:18:29;;;;;;;;;2.33;2.33;;;;;28.56;39.22;101366.47;5078336;28;45407;-75
2023/06/12 00:20:55;;;;;;;;;2.33;2.00;;;;;28.56;39.38;101366.47;5078746;28;45294;-75
2023/06/12 00:23:20;;;;;;;;;2.00;2.00;;;;;28.54;39.23;101365.88;5077975;28;45467;-74
2023/06/12 00:25:46;;;;;;;;;3.00;3.00;;;;;28.47;39.44;101347.97;5078492;28;45418;-75
2023/06/12 00:28:11;;;;;;;;;2.33;1.00;;;;;28.55;39.83;101364.84;5078120;28;45277;-75
2023/06/12 00:30:36;;;;;;;;;1.00;1.00;;;;;28.55;39.36;101360.28;5060160;28;45865;-75
2023/06/12 00:33:02;;;;;;;;;2.00;2.00;;;;;28.60;38.99;101368.50;5060143;28;45463;-75
2023/06/12 00:35:27;;;;;;;;;3.00;3.00;;;;;28.59;39.06;101364.22;5078158;28;46151;-75
2023/06/12 00:37:52;;;;;;;;;0.67;0.67;;;;;28.59;39.42;101356.19;5059522;28;45436;-75
2023/06/12 00:40:18;;;;;;;;;2.33;2.33;;;;;28.57;39.44;101349.41;5077827;28;45579;-75
2023/06/12 00:42:46;;;;;;;;;3.00;2.00;;;;;28.57;39.26;101360.94;5077722;28;45411;-75
2023/06/12 00:45:16;;;;;;;;;2.67;2.67;;;;;28.59;39.56;101366.88;5059386;28;47881;-75
2023/06/12 00:47:45;;;;;;;;;2.00;2.00;;;;;28.58;38.96;101367.91;5059805;28;45395;-75
2023/06/12 00:50:12;;;;;;;;;1.00;1.00;;;;;28.58;39.56;101359.06;5072006;28;45407;-74
2023/06/12 00:52:43;;;;;;;;;1.67;1.67;;;;;28.61;39.63;101366.66;5039036;28;45463;-74
2023/06/12 00:55:09;;;;;;;;;2.00;2.00;;;;;28.56;39.68;101343.22;5057359;28;46671;-74
2023/06/12 00:57:37;;;;;;;;;2.33;2.33;;;;;28.59;39.78;101352.66;5057500;28;45587;-75
2023/06/12 01:00:05;;;;;;;;;2.00;2.00;;;;;28.60;39.64;101354.28;5056182;28;45386;-75
2023/06/12 01:02:31;;;;;;;;;2.00;2.00;;;;;28.60;39.23;101360.47;5056996;28;45269;-74
2023/06/12 01:04:57;;;;;;;;;1.33;1.33;;;;;28.55;39.73;101357.63;5056069;28;45608;-75
2023/06/12 01:07:54;;;;;;;;;2.00;2.00;;;;;28.59;39.47;101350.81;5055573;28;45776;-74
2023/06/12 01:10:50;;;;;;;;;0.33;0.00;;;;;28.62;39.37;101354.94;5056528;28;45656;-74
2023/06/12 01:13:17;;;;;;;;;1.00;1.00;;;;;28.55;39.13;101343.44;5052458;28;45400;-75
2023/06/12 01:15:43;;;;;;;;;1.33;1.33;;;;;28.59;39.25;101353.50;5065611;28;45701;-74
2023/06/12 01:18:08;;;;;;;;;2.00;1.00;;;;;28.65;39.58;101361.72;5093123;27;45870;-75
2023/06/12 01:20:34;;;;;;;;;4.00;2.00;;;;;28.60;39.31;101360.47;5077134;27;45386;-75
2023/06/12 01:23:18;;;;;;;;;1.00;1.00;;;;;28.65;39.08;101365.19;5077516;28;45310;-75
2023/06/12 01:26:08;;;;;;;;;1.67;1.67;;;;;28.67;39.20;101356.97;5077161;28;47297;-75
2023/06/12 01:28:54;;;;;;;;;1.33;1.33;;;;;28.66;39.32;101353.47;5077081;28;45287;-74
2023/06/12 01:31:26;;;;;;;;;1.00;1.00;;;;;28.61;39.40;101353.28;5076109;28;45375;-75
2023/06/12 01:34:09;;;;;;;;;1.33;1.33;;;;;28.65;39.23;101356.34;5092974;27;45290;-75
2023/06/12 01:36:41;;;;;;;;;2.00;2.00;;;;;28.67;39.23;101362.31;5076738;28;46573;-75
2023/06/12 01:39:07;;;;;;;;;3.00;2.00;;;;;28.59;39.01;101348.16;5077001;28;45439;-75
2023/06/12 01:41:34;;;;;;;;;2.00;2.00;;;;;28.63;39.02;101359.22;5077074;28;45323;-75
2023/06/12 01:44:09;;;;;;;;;2.00;2.00;;;;;28.65;39.25;101353.69;5077220;28;45450;-74
2023/06/12 01:46:35;;;;;;;;;2.00;2.00;;;;;28.66;39.21;101357.97;5075136;28;45417;-75
2023/06/12 01:49:02;;;;;;;;;1.00;1.00;;;;;28.57;39.63;101344.88;5076783;27;45406;-75
2023/06/12 01:51:28;;;;;;;;;2.33;2.00;;;;;28.54;39.30;101341.78;5076564;28;45411;-75
2023/06/12 01:53:53;;;;;;;;;2.00;2.00;;;;;28.63;39.46;101359.22;5075294;27;45579;-74
2023/06/12 01:56:19;;;;;;;;;1.67;1.67;;;;;28.64;39.58;101358.22;5076981;27;45471;-75
2023/06/12 01:58:44;;;;;;;;;1.00;1.00;;;;;28.62;39.16;101350.38;5076723;27;45401;-75
2023/06/12 02:01:15;;;;;;;;;2.33;2.00;;;;;28.61;39.14;101350.59;5077008;27;45404;-75
2023/06/12 02:03:41;;;;;;;;;2.00;2.00;;;;;28.60;39.34;101352.44;5076717;27;45517;-75
2023/06/12 02:06:07;;;;;;;;;1.67;1.33;;;;;28.65;39.78;101356.34;5076592;27;45393;-75
2023/06/12 02:08:32;;;;;;;;;2.33;2.33;;;;;28.63;39.38;101352.03;5076441;28;45585;-74
2023/06/12 02:10:57;;;;;;;;;1.33;1.33;;;;;28.61;39.45;101351.44;5076820;27;45330;-75
2023/06/12 02:13:23;;;;;;;;;1.00;1.00;;;;;28.63;39.34;101352.03;5076751;27;45281;-75
2023/06/12 02:15:48;;;;;;;;;2.00;2.00;;;;;28.59;39.05;101345.47;5076157;27;46015;-75
2023/06/12 02:18:13;;;;;;;;;2.00;2.00;;;;;28.66;39.69;101344.59;5075189;28;45382;-75
2023/06/12 02:20:39;;;;;;;;;2.00;2.00;;;;;28.66;39.09;101347.28;5076630;28;45357;-75
2023/06/12 02:23:04;;;;;;;;;1.67;1.67;;;;;28.66;39.31;101347.28;5076519;28;45329;-75
2023/06/12 02:25:30;;;;;;;;;1.00;1.00;;;;;28.62;39.03;101341.53;5076244;28;45642;-74
2023/06/12 02:27:55;;;;;;;;;1.33;1.33;;;;;28.63;39.23;101343.16;5076372;28;45361;-74
2023/06/12 02:30:20;;;;;;;;;2.33;2.33;;;;;28.66;39.10;101345.44;5076618;28;45407;-75
2023/06/12 02:32:47;;;;;;;;;2.00;2.00;;;;;28.64;39.16;101347.50;5075856;28;45636;-73
2023/06/12 02:35:12;;;;;;;;;1.00;1.00;;;;;28.65;39.33;101349.13;5075470;28;45968;-75
2023/06/12 02:37:38;;;;;;;;;2.00;1.00;;;;;28.67;39.28;101356.97;5076219;28;45299;-74
2023/06/12 02:40:04;;;;;;;;;0.00;0.00;;;;;28.67;39.31;101356.97;5076352;28;45396;-75
2023/06/12 02:42:29;;;;;;;;;3.00;1.00;;;;;28.66;39.07;101358.81;5076189;28;45427;-75
2023/06/12 02:44:54;;;;;;;;;1.00;1.00;;;;;28.58;39.28;101349.16;5075030;28;45418;-75
2023/06/12 02:47:20;;;;;;;;;2.00;2.00;;;;;28.68;38.86;101362.09;5075579;28;45445;-75
2023/06/12 02:49:45;;;;;;;;;1.00;1.00;;;;;28.72;39.39;101365.16;5055121;28;45506;-74
2023/06/12 02:52:11;;;;;;;;;2.00;2.00;;;;;28.70;39.22;101365.38;5059372;28;45615;-75
2023/06/12 02:54:37;;;;;;;;;1.00;1.00;;;;;28.69;39.28;101354.88;5075855;28;47299;-75
2023/06/12 02:57:02;;;;;;;;;2.00;2.00;;;;;28.67;38.92;101360.47;5075922;28;45452;-75
2023/06/12 02:59:28;;;;;;;;;2.67;1.00;;;;;28.70;39.28;101362.69;5076120;28;45371;-74
2023/06/12 03:01:53;;;;;;;;;1.00;1.00;;;;;28.61;39.08;101348.75;5057196;28;45332;-74
2023/06/12 03:04:20;;;;;;;;;2.00;2.00;;;;;28.65;39.23;101353.69;5075981;28;47011;-74
2023/06/12 03:06:51;;;;;;;;;2.00;2.00;;;;;28.62;39.15;101352.25;5075696;28;45356;-75
2023/06/12 03:09:18;;;;;;;;;0.33;0.33;;;;;28.68;39.02;101361.25;5075991;28;45414;-74
2023/06/12 03:11:44;;;;;;;;;1.00;1.00;;;;;28.63;39.24;101354.69;5075701;28;45427;-75
2023/06/12 03:14:09;;;;;;;;;3.00;3.00;;;;;28.67;39.38;101359.63;5074404;28;46930;-75
2023/06/12 03:16:36;;;;;;;;;1.00;1.00;;;;;28.65;39.28;101364.38;5075149;28;45529;-75
2023/06/12 03:19:02;;;;;;;;;1.00;1.00;;;;;28.68;39.05;101362.09;5075895;28;45550;-74
2023/06/12 03:21:28;;;;;;;;;1.67;1.00;;;;;28.66;39.06;101366.84;5075776;28;45419;-75
2023/06/12 03:23:53;;;;;;;;;0.33;0.33;;;;;28.65;38.97;101359.03;5075164;28;45414;-74
2023/06/12 03:26:18;;;;;;;;;2.00;2.00;;;;;28.64;39.17;101360.88;5075514;28;45463;-75
2023/06/12 03:28:45;;;;;;;;;2.00;2.00;;;;;28.65;39.03;101367.88;5057483;28;45435;-75
2023/06/12 03:31:11;;;;;;;;;3.00;3.00;;;;;28.65;39.03;101370.53;5075363;28;45293;-75
2023/06/12 03:33:36;;;;;;;;;1.33;1.33;;;;;28.64;39.12;101368.91;5057261;28;46105;-75
2023/06/12 03:36:02;;;;;;;;;1.00;1.00;;;;;28.67;39.00;101373.03;5076001;28;45337;-74
2023/06/12 03:38:27;;;;;;;;;1.00;1.00;;;;;28.68;39.02;101377.31;5079165;28;45834;-75
2023/06/12 03:40:52;;;;;;;;;1.00;1.00;;;;;28.69;39.38;101377.13;5061091;28;45585;-75
2023/06/12 03:43:17;;;;;;;;;0.33;0.33;;;;;28.69;39.34;101371.78;5078877;28;46281;-75
2023/06/12 03:45:43;;;;;;;;;2.00;2.00;;;;;28.70;38.77;101369.94;5077449;28;45398;-75
2023/06/12 03:48:08;;;;;;;;;3.00;1.33;;;;;28.69;38.98;101370.94;5079060;28;45392;-75
2023/06/12 03:50:33;;;;;;;;;1.00;1.00;;;;;28.71;38.99;101371.56;5047999;28;45253;-75
2023/06/12 03:52:59;;;;;;;;;2.00;2.00;;;;;28.72;38.99;101370.53;5060350;28;46525;-75
2023/06/12 03:55:25;;;;;;;;;1.00;1.00;;;;;28.72;38.87;101367.84;5078826;28;45430;-74
2023/06/12 03:57:50;;;;;;;;;2.67;2.00;;;;;28.70;39.15;101364.56;5060653;28;45884;-75
2023/06/12 04:00:16;;;;;;;;;1.67;1.67;;;;;28.69;39.01;101369.09;5078468;28;45272;-75
2023/06/12 04:02:43;;;;;;;;;1.00;1.00;;;;;28.69;39.38;101369.09;5078536;28;46080;-74
2023/06/12 04:05:08;;;;;;;;;2.00;2.00;;;;;28.63;39.13;101360.06;5078556;28;45265;-74
2023/06/12 04:07:37;;;;;;;;;2.33;2.33;;;;;28.65;39.19;101351.00;5060189;28;45312;-75
2023/06/12 04:10:03;;;;;;;;;1.00;1.00;;;;;28.65;39.21;101349.13;5078566;28;45308;-75
2023/06/12 04:12:29;;;;;;;;;1.00;1.00;;;;;28.58;38.71;101337.63;5077996;28;45511;-75
2023/06/12 04:14:55;;;;;;;;;1.00;1.00;;;;;28.69;38.78;101355.72;5077904;27;45372;-75
2023/06/12 04:17:20;;;;;;;;;1.67;1.67;;;;;28.61;39.23;101343.41;5077092;28;45764;-74
2023/06/12 04:19:48;;;;;;;;;1.00;1.00;;;;;28.66;38.89;101341.91;5077292;28;45612;-75
2023/06/12 04:22:15;;;;;;;;;3.33;2.00;;;;;28.67;39.37;101351.59;5078155;28;46468;-75
2023/06/12 04:24:42;;;;;;;;;2.00;2.00;;;;;28.55;38.80;101332.72;5078327;28;45343;-75
2023/06/12 04:27:10;;;;;;;;;2.00;2.00;;;;;28.66;39.20;101349.94;5078384;28;45389;-74
2023/06/12 04:29:37;;;;;;;;;1.33;1.33;;;;;28.63;38.96;101348.53;5077864;28;45466;-75
2023/06/12 04:32:07;;;;;;;;;1.33;1.00;;;;;28.66;39.03;101344.59;5078086;28;46588;-75
2023/06/12 04:34:39;;;;;;;;;2.00;2.00;;;;;28.70;39.02;101354.66;5078097;28;45500;-74
2023/06/12 04:37:14;;;;;;;;;1.67;1.67;;;;;28.69;39.08;101350.34;5078056;28;45317;-75
2023/06/12 04:39:43;;;;;;;;;2.00;2.00;;;;;28.68;39.23;101346.03;5075701;28;45602;-75
2023/06/12 04:42:10;;;;;;;;;2.00;2.00;;;;;28.71;39.13;101347.44;5077705;28;45553;-75
2023/06/12 04:44:37;;;;;;;;;1.33;1.33;;;;;28.71;38.75;101350.97;5076741;28;45404;-75
2023/06/12 04:47:07;;;;;;;;;1.00;1.00;;;;;28.68;39.30;101350.56;5059878;28;45352;-75
2023/06/12 04:49:33;;;;;;;;;0.67;0.67;;;;;28.71;38.98;101345.59;5077006;28;45276;-73
2023/06/12 04:52:02;;;;;;;;;2.00;1.00;;;;;28.67;38.69;101335.53;5058121;28;46937;-73
2023/06/12 04:54:28;;;;;;;;;1.00;1.00;;;;;28.72;38.94;101341.06;5077611;28;45295;-73
2023/06/12 04:56:54;;;;;;;;;1.00;1.00;;;;;28.71;38.91;101344.78;5077730;28;45335;-73
2023/06/12 04:59:20;;;;;;;;;1.00;1.00;;;;;28.72;38.86;101344.59;5059288;28;45374;-73
2023/06/12 05:01:46;;;;;;;;;1.00;1.00;;;;;28.72;38.90;101344.59;5077401;28;46355;-75
2023/06/12 05:04:11;;;;;;;;;3.00;2.00;;;;;28.74;38.50;101337.16;5059341;28;45249;-75
2023/06/12 05:06:39;;;;;;;;;3.00;1.00;;;;;28.71;39.07;101342.09;5077444;28;45339;-74
2023/06/12 05:09:07;;;;;;;;;2.33;1.00;;;;;28.70;38.77;101340.47;5077651;28;45395;-73
2023/06/12 05:11:32;;;;;;;;;0.33;0.33;;;;;28.71;38.74;101334.06;5077261;28;46572;-72
2023/06/12 05:13:58;;;;;;;;;2.00;2.00;;;;;28.70;38.63;101333.25;5076990;28;45440;-73
2023/06/12 05:16:23;;;;;;;;;1.67;1.67;;;;;28.67;39.31;101330.19;5077297;28;45403;-73
2023/06/12 05:18:48;;;;;;;;;1.00;1.00;;;;;28.69;38.88;101336.16;5059439;28;45449;-73
2023/06/12 05:21:14;;;;;;;;;2.00;2.00;;;;;28.62;38.77;101323.59;5059138;28;47304;-73
2023/06/12 05:23:40;;;;;;;;;1.67;1.33;;;;;28.69;39.25;101339.66;5059000;28;45419;-77
2023/06/12 05:26:06;;;;;;;;;1.00;1.00;;;;;28.70;39.29;101332.44;5059006;28;45383;-72
2023/06/12 05:28:31;;;;;;;;;2.00;2.00;;;;;28.70;39.22;101333.25;5058728;28;45260;-74
2023/06/12 05:30:56;;;;;;;;;1.67;1.67;;;;;28.69;38.60;101336.97;5059014;28;45416;-73
2023/06/12 05:33:22;;;;;;;;;3.00;1.33;;;;;28.69;37.90;101330.78;5059301;28;45375;-72
2023/06/12 05:35:49;;;;;;;;;3.67;3.33;;;;;28.65;38.47;101332.25;5059060;28;45398;-73
2023/06/12 05:38:14;;;;;;;;;2.00;2.00;;;;;28.60;38.49;101331.03;5077489;28;45364;-72
2023/06/12 05:40:40;;;;;;;;;3.00;2.00;;;;;28.60;37.65;101343.59;5077250;28;46447;-72
2023/06/12 05:43:05;;;;;;;;;4.67;4.33;;;;;28.54;37.76;101342.59;5076911;28;45367;-73
2023/06/12 05:45:30;;;;;;;;;5.00;4.00;;;;;28.51;38.16;101345.72;5046281;28;45530;-76
2023/06/12 05:47:56;;;;;;;;;5.33;4.00;;;;;28.52;37.90;101347.38;5041884;28;45657;-73
2023/06/12 05:50:21;;;;;;;;;5.00;4.33;;;;;28.52;37.71;101347.38;5043252;28;45483;-73
2023/06/12 05:52:46;;;;;;;;;5.33;4.67;;;;;28.49;37.86;101350.47;5049785;28;45289;-73
2023/06/12 05:55:12;;;;;;;;;5.00;5.00;;;;;28.38;37.36;101333.16;5037646;28;45782;-72
2023/06/12 05:57:37;;;;;;;;;3.00;3.00;;;;;28.41;37.40;101348.81;5036000;28;45442;-75
2023/06/12 06:00:05;;;;;;;;;5.33;4.00;;;;;28.43;37.19;101359.28;5055167;28;46545;-75
2023/06/12 06:02:31;;;;;;;;;7.00;5.00;;;;;28.36;37.58;101346.78;5062851;28;45332;-75
2023/06/12 06:04:57;;;;;;;;;7.00;6.00;;;;;28.31;37.54;101338.56;5055949;28;45368;-75
2023/06/12 06:07:22;;;;;;;;;4.67;4.67;;;;;28.29;37.76;101349.44;5055720;28;45558;-76
2023/06/12 06:09:48;;;;;;;;;5.33;4.33;;;;;28.33;37.22;101367.78;5055944;28;45302;-75
2023/06/12 06:12:14;;;;;;;;;3.67;3.33;;;;;28.34;37.33;101375.56;5054829;28;45391;-75
2023/06/12 06:14:39;;;;;;;;;6.00;4.00;;;;;28.27;37.44;101364.91;5056424;27;45335;-76
2023/06/12 06:17:04;;;;;;;;;5.00;5.00;;;;;28.28;37.29;101369.22;5076833;27;45338;-77
2023/06/12 06:19:30;;;;;;;;;4.33;4.00;;;;;28.28;37.47;101381.78;5076633;27;45496;-75
2023/06/12 06:21:55;;;;;;;;;3.00;3.00;;;;;28.27;37.38;101382.81;5076369;27;45381;-74
2023/06/12 06:24:20;;;;;;;;;4.67;4.00;;;;;28.20;37.16;101368.63;5077107;28;45390;-76
2023/06/12 06:26:46;;;;;;;;;3.00;3.00;;;;;28.25;37.46;101375.00;5075675;27;45384;-74
2023/06/12 06:29:11;;;;;;;;;4.67;3.00;;;;;28.28;37.97;101376.44;5075156;28;48257;-74
2023/06/12 06:31:36;;;;;;;;;5.00;4.00;;;;;28.32;37.59;101384.84;5076662;28;45450;-74
2023/06/12 06:34:02;;;;;;;;;5.33;4.00;;;;;28.32;37.87;101382.16;5075538;28;45343;-74
2023/06/12 06:36:27;;;;;;;;;5.00;4.00;;;;;28.39;37.78;101391.03;5076453;28;45380;-74
2023/06/12 06:38:52;;;;;;;;;3.33;3.00;;;;;28.33;38.15;101365.91;5076444;27;45625;-74
2023/06/12 06:41:18;;;;;;;;;5.33;3.67;;;;;28.39;37.92;101381.13;5075778;28;45372;-74
2023/06/12 06:43:44;;;;;;;;;4.00;4.00;;;;;28.40;37.64;101376.59;5076316;27;45391;-72
2023/06/12 06:46:09;;;;;;;;;3.00;3.00;;;;;28.39;37.77;101372.28;5076509;27;45442;-72
2023/06/12 06:48:35;;;;;;;;;3.00;3.00;;;;;28.43;37.54;101372.66;5076051;28;45518;-72
2023/06/12 06:51:02;;;;;;;;;4.33;2.67;;;;;28.47;37.94;101385.44;5075993;27;45360;-72
2023/06/12 06:53:27;;;;;;;;;4.00;2.67;;;;;28.51;37.74;101385.84;5076153;27;45441;-72
2023/06/12 06:55:52;;;;;;;;;6.00;3.00;;;;;28.49;38.13;101374.53;5075716;27;45425;-72
2023/06/12 06:58:18;;;;;;;;;3.33;3.33;;;;;28.54;37.79;101388.13;5075899;27;46391;-71
2023/06/12 07:00:44;;;;;;;;;4.00;3.00;;;;;28.57;37.92;101387.69;5091923;27;45394;-72
2023/06/12 07:03:09;;;;;;;;;2.33;2.33;;;;;28.61;37.52;101393.44;5091680;27;45698;-72
2023/06/12 07:05:35;;;;;;;;;3.00;3.00;;;;;28.61;38.26;101393.44;5076027;27;45589;-72
2023/06/12 07:08:00;;;;;;;;;4.00;4.00;;;;;28.64;38.18;101393.00;5076385;27;45418;-72
2023/06/12 07:10:26;;;;;;;;;4.00;3.33;;;;;28.54;37.47;101372.06;5076075;28;45369;-72
2023/06/12 07:12:56;;;;;;;;;4.33;3.67;;;;;28.67;37.98;101389.91;5079749;27;45522;-72
2023/06/12 07:15:22;;;;;;;;;3.00;3.00;;;;;28.68;37.95;101388.88;5079597;27;45736;-74
2023/06/12 07:17:47;;;;;;;;;3.00;3.00;;;;;28.68;38.28;101386.19;5061002;28;47086;-74
2023/06/12 07:20:13;;;;;;;;;1.00;1.00;;;;;28.74;37.86;101392.53;5079634;28;45470;-74
2023/06/12 07:22:38;;;;;;;;;3.00;3.00;;;;;28.73;37.94;101397.06;5079414;28;45273;-74
2023/06/12 07:25:03;;;;;;;;;5.33;3.00;;;;;28.78;37.75;101407.13;5060479;28;45253;-74
2023/06/12 07:27:29;;;;;;;;;2.00;2.00;;;;;28.77;37.92;101400.16;5079398;28;45522;-74
2023/06/12 07:29:55;;;;;;;;;4.00;4.00;;;;;28.78;38.63;101398.31;5079168;28;45391;-75
2023/06/12 07:32:20;;;;;;;;;3.00;3.00;;;;;28.85;37.97;101409.81;5079395;28;45422;-74
2023/06/12 07:34:46;;;;;;;;;3.00;3.00;;;;;28.81;38.38;101393.34;5079384;28;45585;-74
2023/06/12 07:37:12;;;;;;;;;3.67;3.00;;;;;28.88;37.85;101400.53;5060501;28;45649;-74
2023/06/12 07:39:38;;;;;;;;;2.00;2.00;;;;;28.83;38.30;101391.25;5079443;28;45336;-74
2023/06/12 07:42:04;;;;;;;;;4.00;3.00;;;;;28.84;37.93;101392.09;5079159;28;45483;-74
2023/06/12 07:44:30;;;;;;;;;4.00;3.00;;;;;28.87;37.95;101399.69;5061023;28;45544;-73
2023/06/12 07:46:56;;;;;;;;;3.33;3.00;;;;;28.88;38.07;101400.53;5078967;28;45371;-74
2023/06/12 07:49:21;;;;;;;;;3.00;2.67;;;;;28.87;38.37;101396.19;5078544;28;45422;-74
2023/06/12 07:51:47;;;;;;;;;5.33;4.00;;;;;28.92;37.91;101396.38;5039790;28;45434;-74
2023/06/12 07:54:13;;;;;;;;;2.67;2.67;;;;;28.84;38.25;101382.19;5060374;28;45454;-75
2023/06/12 07:56:39;;;;;;;;;5.00;3.00;;;;;28.94;38.25;101396.97;5060401;28;46422;-74
2023/06/12 07:59:11;;;;;;;;;3.67;2.00;;;;;28.96;37.66;101400.28;5078782;28;45413;-74
2023/06/12 08:01:36;;;;;;;;;2.67;2.67;;;;;28.98;38.01;101400.06;5078695;28;45212;-73
2023/06/12 08:04:05;;;;;;;;;5.33;3.00;;;;;28.90;38.33;101379.69;5078670;28;45415;-74
2023/06/12 08:06:33;;;;;;;;;2.00;2.00;;;;;28.98;38.09;101402.72;5077938;28;47127;-74
2023/06/12 08:08:58;;;;;;;;;3.00;3.00;;;;;29.03;37.85;101402.91;5059823;28;45477;-74
2023/06/12 08:11:24;;;;;;;;;3.33;2.00;;;;;29.06;38.33;101399.81;5078543;28;45386;-74
2023/06/12 08:13:49;;;;;;;;;2.33;2.33;;;;;29.09;38.15;101398.56;5060113;28;45530;-74
2023/06/12 08:16:15;;;;;;;;;4.00;2.67;;;;;29.14;38.28;101399.59;5077553;27;45796;-75
2023/06/12 08:18:40;;;;;;;;;2.67;2.67;;;;;29.16;37.79;101394.81;5060154;28;45403;-74
2023/06/12 08:21:05;;;;;;;;;2.33;2.33;;;;;29.19;37.69;101390.91;5077843;28;45279;-75
2023/06/12 08:23:31;;;;;;;;;5.00;3.33;;;;;29.20;37.78;101394.41;5060143;28;45624;-74
2023/06/12 08:25:56;;;;;;;;;2.33;2.33;;;;;29.22;38.06;101379.75;5059956;28;47342;-74
2023/06/12 08:28:21;;;;;;;;;2.67;2.00;;;;;29.29;37.81;101393.09;5060015;28;46019;-74
2023/06/12 08:30:47;;;;;;;;;3.00;2.00;;;;;29.29;37.88;101377.84;5077097;28;45494;-74
2023/06/12 08:33:15;;;;;;;;;1.33;1.33;;;;;29.29;37.68;101374.34;5077947;28;45336;-74
2023/06/12 08:35:41;;;;;;;;;5.33;2.00;;;;;29.29;38.02;101374.34;5077127;28;46188;-74
2023/06/12 08:38:06;;;;;;;;;3.00;3.00;;;;;29.32;37.84;101365.88;5059974;28;45314;-74
2023/06/12 08:40:32;;;;;;;;;2.00;2.00;;;;;29.33;37.93;101370.16;5078275;28;45325;-74
2023/06/12 08:42:58;;;;;;;;;2.33;2.33;;;;;29.37;38.08;101367.88;5078035;28;45540;-74
2023/06/12 08:45:26;;;;;;;;;2.00;2.00;;;;;29.31;37.86;101355.34;5077020;28;47554;-74
2023/06/12 08:47:51;;;;;;;;;2.00;2.00;;;;;29.38;38.02;101370.34;5059734;28;45257;-75
2023/06/12 08:50:18;;;;;;;;;2.00;1.67;;;;;29.40;37.72;101367.47;5070577;28;45653;-74
2023/06/12 08:52:44;;;;;;;;;2.67;2.00;;;;;29.38;38.10;101359.63;5066628;28;45567;-74
2023/06/12 08:55:15;;;;;;;;;3.00;3.00;;;;;29.36;38.01;101356.34;5077785;28;45696;-74
2023/06/12 08:57:41;;;;;;;;;4.67;4.67;;;;;29.40;37.66;101364.78;5077911;28;45305;-74
2023/06/12 09:00:13;;;;;;;;;3.00;3.00;;;;;29.39;37.94;101365.81;5077715;28;45395;-74
2023/06/12 09:02:51;;;;;;;;;4.67;3.33;;;;;29.43;37.86;101361.66;5059650;28;45557;-74
2023/06/12 09:05:19;;;;;;;;;2.00;1.33;;;;;29.40;37.83;101360.25;5077193;28;47196;-74
2023/06/12 09:07:47;;;;;;;;;1.33;1.33;;;;;29.29;37.33;101343.00;5059435;28;45567;-74
2023/06/12 09:10:14;;;;;;;;;2.00;2.00;;;;;29.42;37.99;101356.50;5077773;28;45334;-74
2023/06/12 09:12:43;;;;;;;;;3.67;2.00;;;;;29.44;37.89;101359.78;5076945;28;45314;-74
2023/06/12 09:15:09;;;;;;;;;3.00;3.00;;;;;29.39;37.91;101360.44;5077150;27;46725;-71
2023/06/12 09:17:37;;;;;;;;;3.00;3.00;;;;;29.42;37.53;101362.69;5077686;28;45482;-72
2023/06/12 09:20:04;;;;;;;;;3.33;2.00;;;;;29.45;37.52;101366.78;5077333;28;45481;-72
2023/06/12 09:22:30;;;;;;;;;3.00;3.00;;;;;29.42;37.81;101354.66;5077631;28;45525;-72
2023/06/12 09:24:56;;;;;;;;;2.67;2.00;;;;;29.42;37.26;101346.63;5077481;28;45456;-72
2023/06/12 09:27:21;;;;;;;;;2.00;2.00;;;;;29.44;37.51;101349.88;5077541;28;45474;-72
2023/06/12 09:29:47;;;;;;;;;3.67;3.00;;;;;29.49;37.35;101357.25;5059244;28;45343;-72
2023/06/12 09:32:14;;;;;;;;;2.33;2.33;;;;;29.28;37.75;101313.72;5060033;28;45619;-72
2023/06/12 09:34:50;;;;;;;;;1.33;1.33;;;;;29.51;37.78;101345.28;5058246;28;47969;-72
2023/06/12 09:37:16;;;;;;;;;2.00;2.00;;;;;29.51;37.63;101344.47;5077274;28;45497;-72
2023/06/12 09:39:42;;;;;;;;;1.00;1.00;;;;;29.56;37.81;101355.34;5078109;28;45443;-72
2023/06/12 09:42:10;;;;;;;;;2.00;2.00;;;;;29.57;37.81;101357.00;5076931;28;45606;-72
2023/06/12 09:44:35;;;;;;;;;1.67;1.67;;;;;29.58;37.43;101361.31;5077044;28;46477;-72
2023/06/12 09:47:02;;;;;;;;;2.33;2.33;;;;;29.59;37.72;101356.75;5077257;28;45374;-72
2023/06/12 09:49:28;;;;;;;;;2.00;2.00;;;;;29.59;37.70;101354.09;5077260;28;45367;-72
2023/06/12 09:51:54;;;;;;;;;2.67;2.67;;;;;29.60;37.99;101351.19;5040522;28;45310;-72
2023/06/12 09:54:22;;;;;;;;;2.00;2.00;;;;;29.66;37.66;101356.72;5076567;28;45678;-72
2023/06/12 09:56:53;;;;;;;;;1.33;1.33;;;;;29.68;37.55;101360.00;5059067;28;45385;-71
2023/06/12 09:59:21;;;;;;;;;2.67;2.67;;;;;29.65;37.54;101353.22;5077022;28;45387;-72
2023/06/12 10:01:59;;;;;;;;;2.33;2.33;;;;;29.62;37.56;101345.59;5077041;28;45470;-72
2023/06/12 10:04:51;;;;;;;;;2.33;2.33;;;;;29.63;37.51;101349.94;5076424;28;46765;-72
2023/06/12 10:07:24;;;;;;;;;1.67;1.67;;;;;29.43;37.44;101321.47;5076011;28;45461;-72
2023/06/12 10:09:51;;;;;;;;;2.67;2.67;;;;;29.57;37.81;101340.91;5058595;28;45390;-71
2023/06/12 10:12:16;;;;;;;;;2.33;2.33;;;;;29.50;37.70;101330.25;5058797;28;45363;-72
2023/06/12 10:14:43;;;;;;;;;2.33;2.33;;;;;29.52;38.02;101341.56;5076479;28;46097;-72
2023/06/12 10:17:10;;;;;;;;;3.33;3.33;;;;;29.48;37.93;101328.84;5076401;28;45317;-72
2023/06/12 10:19:37;;;;;;;;;4.33;2.67;;;;;29.47;37.43;101336.06;5076803;28;45297;-72
2023/06/12 10:22:07;;;;;;;;;3.00;3.00;;;;;29.46;38.01;101334.41;5058685;28;45411;-72
2023/06/12 10:24:34;;;;;;;;;3.67;2.00;;;;;29.50;37.54;101343.66;5075812;28;45653;-72
2023/06/12 10:27:00;;;;;;;;;3.00;3.00;;;;;29.43;37.89;101331.34;5075994;28;45787;-72
2023/06/12 10:29:31;;;;;;;;;2.00;2.00;;;;;29.48;37.92;101340.38;5076772;28;45386;-72
2023/06/12 10:32:17;;;;;;;;;4.00;4.00;;;;;29.45;37.89;101326.59;5075940;28;45406;-72
2023/06/12 10:34:44;;;;;;;;;4.33;3.33;;;;;29.44;38.00;101335.66;5075207;27;46022;-74
2023/06/12 10:37:30;;;;;;;;;3.00;3.00;;;;;29.38;37.80;101319.41;5076182;28;45465;-74
2023/06/12 10:40:09;;;;;;;;;2.00;1.67;;;;;29.44;37.75;101333.81;5076363;28;45222;-74
2023/06/12 10:42:48;;;;;;;;;2.00;2.00;;;;;29.44;37.47;101336.47;5076080;28;45301;-74
2023/06/12 10:45:31;;;;;;;;;4.00;2.00;;;;;29.43;37.74;101329.50;5075869;28;47276;-74
2023/06/12 10:48:02;;;;;;;;;3.00;3.00;;;;;29.46;38.06;101333.59;5075364;28;45421;-74
2023/06/12 10:50:31;;;;;;;;;2.67;1.67;;;;;29.45;37.85;101331.94;5046293;28;45415;-74
2023/06/12 10:52:59;;;;;;;;;1.67;1.67;;;;;29.47;37.55;101333.38;5057083;28;45339;-72
2023/06/12 10:55:27;;;;;;;;;2.33;2.33;;;;;29.48;38.09;101329.66;5075932;28;45290;-71
2023/06/12 10:57:53;;;;;;;;;3.00;3.00;;;;;29.49;37.91;101335.81;5057573;28;45677;-72
2023/06/12 11:00:27;;;;;;;;;2.00;2.00;;;;;29.50;37.65;101326.75;5075677;28;45291;-72
2023/06/12 11:03:02;;;;;;;;;4.33;2.00;;;;;29.42;37.85;101314.44;5076152;28;45447;-72
2023/06/12 11:05:29;;;;;;;;;2.00;2.00;;;;;29.47;37.36;101317.28;5075851;28;46311;-72
2023/06/12 11:08:00;;;;;;;;;2.00;2.00;;;;;29.50;37.69;101318.72;5075698;28;45612;-71
2023/06/12 11:10:27;;;;;;;;;4.67;2.67;;;;;29.54;37.74;101324.44;5076120;28;45454;-72
2023/06/12 11:12:53;;;;;;;;;1.33;1.00;;;;;29.52;37.89;101317.44;5076051;28;45372;-72
2023/06/12 11:15:18;;;;;;;;;2.00;2.00;;;;;29.49;37.67;101317.88;5075059;28;47233;-72
2023/06/12 11:17:44;;;;;;;;;2.00;2.00;;;;;29.45;37.45;101305.16;5075974;28;45294;-72
2023/06/12 11:20:10;;;;;;;;;2.00;2.00;;;;;29.51;37.81;101323.84;5075867;28;45420;-71
2023/06/12 11:22:36;;;;;;;;;2.67;2.67;;;;;29.51;37.92;101328.38;5075763;28;45478;-72
2023/06/12 11:25:03;;;;;;;;;3.33;3.33;;;;;29.51;37.73;101328.38;5057496;28;47049;-72